This is the latest recevied weather packets stored in our database for station/object LRTC. If no packets are shown the sender has not sent any weather packets the latest 1 day(s).
| Time | Temp. | Humidity | Pressure | Rain* | Wind** | Luminosity | Snow |
|---|---|---|---|---|---|---|---|
| 1778051924 | 17.78° C | 43% | 1016 hPa | - | - | - | - |
| 1778051024 | 17.78° C | 43% | 1016 hPa | - | - | - | - |
| 1778049224 | 17.22° C | 42% | 1016 hPa | - | - | - | - |
| 1778048325 | 12.78° C | 67% | 1016 hPa | - | - | - | - |
| 1778047426 | 12.78° C | 67% | 1016 hPa | - | - | - | - |
| 1778046526 | 11.11° C | 67% | 1016 hPa | - | - | - | - |
| 1778045633 | 11.11° C | 67% | 1016 hPa | - | - | - | - |
| 1778044725 | 8.89° C | 76% | 1016 hPa | - | - | - | - |
| 1778043838 | 8.89° C | 76% | 1016 hPa | - | - | - | - |
| 1778042940 | 8.89° C | 71% | 1015 hPa | - | - | - | - |
| 1778042028 | 8.89° C | 71% | 1015 hPa | - | - | - | - |
| 1778041125 | 6.11° C | 87% | 1015 hPa | - | - | - | - |
| 1778039325 | 5° C | 81% | 1015 hPa | - | - | - | - |
| 1778038424 | 5° C | 81% | 1015 hPa | - | - | - | - |
| 1778037524 | 5° C | 81% | 1015 hPa | - | - | - | - |
| 1778036624 | 5° C | 81% | 1015 hPa | - | - | - | - |
| 1778034824 | 6.11° C | 76% | 1015 hPa | - | - | - | - |
| 1778032124 | 5° C | 81% | 1015 hPa | - | - | - | - |
| 1778031224 | 5° C | 81% | 1015 hPa | - | - | - | - |
| 1778030325 | 7.78° C | 76% | 1015 hPa | - | - | - | - |
* Rain since midnight (hover to see other rain measurements)
** Current wind speed in m/s (hover to see current wind gust speed)